createdAt,value
2023-03-02T00:12:05.975Z,3.209
2023-03-02T00:43:32.344Z,3.207
2023-03-02T00:59:15.366Z,3.207
2023-03-02T01:14:57.942Z,3.207
2023-03-02T01:46:23.100Z,3.209
2023-03-02T02:02:05.849Z,3.207
2023-03-02T02:17:48.624Z,3.209
2023-03-02T02:33:31.027Z,3.207
2023-03-02T02:49:13.826Z,3.207
2023-03-02T03:04:56.145Z,3.207
2023-03-02T03:20:39.242Z,3.207
2023-03-02T03:36:22.410Z,3.207
2023-03-02T03:52:05.383Z,3.207
2023-03-02T04:07:47.742Z,3.207
2023-03-02T04:23:30.501Z,3.207
2023-03-02T04:39:12.874Z,3.206
2023-03-02T04:54:55.217Z,3.207
2023-03-02T05:10:37.919Z,3.207
2023-03-02T05:26:20.687Z,3.207
2023-03-02T05:42:03.449Z,3.206
2023-03-02T05:57:46.005Z,3.207
2023-03-02T06:13:28.949Z,3.207
2023-03-02T06:29:12.104Z,3.209
2023-03-02T06:44:54.688Z,3.209
2023-03-02T07:00:37.919Z,3.212
2023-03-02T07:16:20.887Z,3.209
2023-03-02T07:32:03.915Z,3.21
2023-03-02T07:47:46.820Z,3.21
2023-03-02T08:03:29.752Z,3.236
2023-03-02T09:53:28.957Z,3.259
2023-03-02T10:09:11.295Z,3.253
2023-03-02T10:24:53.992Z,3.271
2023-03-02T10:40:36.339Z,3.261
2023-03-02T11:59:08.765Z,3.339
2023-03-02T12:30:34.095Z,3.301
2023-03-02T13:01:58.740Z,3.285
2023-03-02T13:17:48.381Z,3.279
2023-03-02T13:33:23.222Z,3.272
2023-03-02T13:49:12.837Z,3.268
2023-03-02T14:04:47.937Z,3.263
2023-03-02T14:20:30.500Z,3.259
2023-03-02T14:36:13.422Z,3.253
2023-03-02T14:51:56.085Z,3.311
2023-03-02T15:07:39.070Z,3.299
2023-03-02T15:23:21.716Z,3.289
2023-03-02T15:39:04.521Z,3.281
2023-03-02T15:54:47.521Z,3.274
2023-03-02T16:10:30.132Z,3.268
2023-03-02T16:26:12.460Z,3.263
2023-03-02T16:41:55.254Z,3.257
2023-03-02T16:57:38.174Z,3.252
2023-03-02T17:13:20.945Z,3.249
2023-03-02T17:44:46.532Z,3.242
2023-03-02T18:00:29.164Z,3.239
2023-03-02T18:16:11.833Z,3.236
2023-03-02T18:31:54.071Z,3.235
2023-03-02T18:47:36.465Z,3.232
2023-03-02T19:03:19.666Z,3.231
2023-03-02T19:04:07.124Z,3.225
2023-03-02T19:19:50.089Z,3.227
2023-03-02T19:35:32.506Z,3.227
2023-03-02T20:06:58.181Z,3.224
2023-03-02T20:22:40.987Z,3.224
2023-03-02T20:38:24.064Z,3.223
2023-03-02T20:54:06.521Z,3.223
2023-03-02T21:09:49.172Z,3.223
2023-03-02T21:25:31.679Z,3.223
2023-03-02T21:41:14.607Z,3.221
2023-03-02T21:56:56.927Z,3.221
2023-03-02T22:12:39.815Z,3.22
2023-03-02T22:28:22.314Z,3.221
2023-03-02T22:44:04.680Z,3.221
2023-03-02T22:59:47.516Z,3.22
2023-03-02T23:15:30.308Z,3.213
2023-03-02T23:31:13.397Z,3.22
